South Palm Beach, Florida
Current Conditions -  °F | °C
As of 5:53 PM on Thursday 23 Oct 2014 (Local Time) from KPBI Reporting Station
Overcast Overcast  
Wind Chill: 78°   Ceiling: 3600
Heat Index: 80°   Visibility: 10mi
Dew Point: 64°   Wind: 15mph
Humidity: 62%   Direction: 40°NE
Pressure: 29.89"   Gusts: NA
Location:  26.6941°N, 80.0379°W
Report Text: KPBI 232153Z 04013KT 10SM BKN036 OVC042 26/18 A2989 RMK AO2 SLP120 T02560178
Loading
Personal Weather Stations






























Interactive Weather Map
Tropical Storm Tracking
New forecast layout! Learn more

10-Day Weather Forecast

Advertisements
Track Severe Weather on mobile